• Join FlightAware (Why Join?)
  • Login
  • US Flag 
10:43AM EDT


 

Airport Tracker/Info


-or-


 

Live Flight TrackerFlight Track Log ✈ EJA370 ✈ 17-May-2013 ✈ KTEB - KTOP

Flight Track Log - Related Links

Times and Time Zones

All times are in EDT time to prevent confusion due to time zone crossing. See the EJA370 flight status page for this flight to view local times or setup timezone preferences in your user account.

Time Position Orientation Groundspeed Altitude Reporting Facility
EDT Latitude Longitude Course Direction KTS MPH feet Rate Location/Type
08:50AM 40.8833 -74.0333 270° West 198 228 2,000  Level New York TRACON
08:51AM 40.9167 -74.0667 323° Northwest 201 231 3,500 1,980 Climbing New York TRACON
08:52AM 40.9000 -74.1667 258° West 254 292 5,800 2,760 Climbing New York TRACON
08:53AM 40.8833 -74.2500 255° West 255 293 9,100 3,300 Climbing New York TRACON
08:54AM 40.8500 -74.3667 249° West 303 349 12,800 3,300 Climbing New York TRACON
08:55AM 40.8333 -74.4667 258° West 323 372 15,700 1,620 Climbing New York TRACON
08:56AM 40.8000 -74.9147 270° West  Level FlightAware Approximate
08:57AM 40.8244 -74.7308 268° West 349 402 17,800  Level New York Center
08:58AM 40.8181 -74.8511 266° West 349 402 20,600 2,940 Climbing New York Center
08:59AM 40.7975 -74.9678 257° West 343 395 23,700 2,640 Climbing New York Center
09:00AM 40.7661 -75.0836 250° West 338 389 25,900 2,040 Climbing New York Center
09:01AM 40.7328 -75.1992 249° West 338 389 27,800 1,800 Climbing New York Center
09:02AM 40.6992 -75.3122 249° West 343 395 29,600 1,620 Climbing New York Center
09:03AM 40.6636 -75.4275 248° West 343 395 31,200 1,440 Climbing New York Center
09:04AM 40.6317 -75.5456 250° West 343 395 32,500 1,380 Climbing New York Center
09:05AM 40.5911 -75.6711 247° West 350 403 34,000 1,440 Climbing New York Center
09:06AM 40.5567 -75.7944 250° West 361 415 35,500 1,440 Climbing New York Center
09:07AM 40.5200 -75.9200 249° West 366 421 36,900 1,380 Climbing New York Center
09:08AM 40.4797 -76.0344 245° Southwest 373 429 38,300 1,200 Climbing New York Center
09:09AM 40.4428 -76.1597 249° West 373 429 39,400 840 Climbing New York Center
09:10AM 40.4056 -76.2850 249° West 373 429 40,000 300 Climbing New York Center
09:11AM 40.3658 -76.4208 249° West 385 443 40,000  Level New York Center
09:12AM 40.3569 -76.5644 265° West 396 456 40,000  Level New York Center
09:13AM 40.3600 -76.7092 272° West 396 456 40,000  Level New York Center
09:14AM 40.3631 -76.8539 272° West 401 461 40,000  Level New York Center
09:15AM 40.3661 -76.9958 272° West 406 467 40,000  Level New York Center
09:16AM 40.3689 -77.1431 271° West 400 460 40,000  Level New York Center
09:17AM 40.3692 -77.2875 270° West 406 467 40,000  Level New York Center
09:18AM 40.3739 -77.4297 273° West 406 467 40,000  Level New York Center
09:20AM 40.3778 -77.7431 271° West 411 473 40,000  Level Cleveland Center
09:21AM 40.3772 -77.8875 270° West 406 467 40,000  Level Cleveland Center
09:22AM 40.3783 -78.0319 271° West 400 460 40,000  Level Cleveland Center
09:23AM 40.3794 -78.1764 271° West 400 460 40,000  Level Cleveland Center
09:24AM 40.3803 -78.3208 270° West 400 460 40,000  Level Cleveland Center
09:25AM 40.3811 -78.4653 270° West 400 460 40,000  Level Cleveland Center
09:26AM 40.3817 -78.6125 270° West 400 460 40,000  Level Cleveland Center
09:27AM 40.3797 -78.7569 269° West 400 460 40,000  Level Cleveland Center
09:28AM 40.3819 -78.8986 271° West 400 460 40,000  Level Cleveland Center
09:29AM 40.3839 -79.0403 271° West 400 460 40,000  Level Cleveland Center
09:30AM 40.3817 -79.1847 269° West 400 460 40,000  Level Cleveland Center
09:31AM 40.3833 -79.3267 271° West 400 460 40,000  Level Cleveland Center
09:32AM 40.3828 -79.4683 270° West 400 460 40,000  Level Cleveland Center
09:33AM 40.3819 -79.6072 270° West 400 460 40,000  Level Cleveland Center
09:34AM 40.3811 -79.7492 270° West 400 460 40,000  Level Cleveland Center
09:35AM 40.3797 -79.8881 269° West 395 455 40,000  Level Cleveland Center
09:36AM 40.3764 -80.0353 268° West 395 455 40,000  Level Cleveland Center
09:37AM 40.3728 -80.1742 268° West 395 455 40,000  Level Cleveland Center
09:38AM 40.3733 -80.3161 270° West 395 455 40,000  Level Cleveland Center
09:39AM 40.3756 -80.4306 271° West 395 455 40,000  Level Cleveland Center
09:40AM 40.3736 -80.5831 269° West 390 449 40,000  Level Cleveland Center
09:41AM 40.3694 -80.7247 268° West 390 449 40,000  Level Cleveland Center
09:42AM 40.3692 -80.8664 270° West 390 449 40,000  Level Cleveland Center
09:43AM 40.3644 -81.0108 268° West 390 449 40,000  Level Cleveland Center
09:44AM 40.3617 -81.1553 269° West 396 456 40,000  Level Cleveland Center
09:46AM 40.3533 -81.4433 268° West 398 458 40,000  Level Indianapolis Center
09:47AM 40.3500 -81.5883 268° West 396 456 40,000  Level Indianapolis Center
09:48AM 40.3472 -81.7361 269° West 399 459 40,000  Level Indianapolis Center
09:49AM 40.3436 -81.8831 268° West 399 459 40,000  Level Indianapolis Center
09:51AM 40.3386 -82.0306 268° West 400 460 40,000  Level Indianapolis Center
09:52AM 40.3356 -82.1783 268° West 401 461 40,000  Level Indianapolis Center
09:53AM 40.3303 -82.3522 268° West 404 465 40,000  Level Indianapolis Center
09:54AM 40.3258 -82.4983 268° West 398 458 40,000  Level Indianapolis Center
09:55AM 40.3211 -82.6483 268° West 406 467 40,000  Level Indianapolis Center
09:56AM 40.3161 -82.7967 268° West 404 465 40,000  Level Indianapolis Center
09:57AM 40.3111 -82.9461 268° West 405 466 40,000  Level Indianapolis Center
09:58AM 40.3053 -83.0947 267° West 406 467 40,000  Level Indianapolis Center
09:59AM 40.3006 -83.2436 268° West 407 468 40,000  Level Indianapolis Center
10:00AM 40.2933 -83.4169 267° West 408 470 40,000  Level Indianapolis Center
10:01AM 40.2883 -83.5656 268° West 408 470 40,000  Level Indianapolis Center
10:02AM 40.2811 -83.7153 266° West 410 472 40,000  Level Indianapolis Center
10:03AM 40.2750 -83.8642 267° West 410 472 40,000  Level Indianapolis Center
10:04AM 40.2675 -84.0147 266° West 413 475 40,000  Level Indianapolis Center
10:05AM 40.2617 -84.1650 267° West 413 475 40,000 -540 Level Indianapolis Center
10:06AM 40.2528 -84.3422 266° West 416 479 38,900 -1,020 Descending Indianapolis Center
10:07AM 40.2464 -84.4900 267° West 406 467 38,000 -480 Descending Indianapolis Center
10:08AM 40.2378 -84.6428 266° West 416 479 38,000  Level Indianapolis Center
10:09AM 40.2297 -84.7978 266° West 423 487 38,000  Level Indianapolis Center
10:10AM 40.2225 -84.9375 266° West 424 488 38,000  Level Indianapolis Center
10:11AM 40.2131 -85.1225 266° West 427 491 38,000  Level Indianapolis Center
10:12AM 40.2044 -85.2764 266° West 427 491 38,000  Level Indianapolis Center
10:13AM 40.1961 -85.4308 266° West 428 493 38,000  Level Indianapolis Center
10:14AM 40.1869 -85.5847 266° West 428 493 38,000  Level Indianapolis Center
10:15AM 40.1775 -85.7381 265° West 427 491 38,000  Level Indianapolis Center
10:16AM 40.1667 -85.9244 266° West 431 496 38,000  Level Indianapolis Center
10:17AM 40.1578 -86.0781 266° West 428 493 38,000  Level Indianapolis Center
10:18AM 40.1475 -86.2328 265° West 431 496 38,000  Level Indianapolis Center
10:19AM 40.1381 -86.3869 265° West 431 496 38,000  Level Indianapolis Center
10:20AM 40.1281 -86.5428 265° West 435 501 38,000  Level Indianapolis Center
10:22AM 40.1156 -86.7281 265° West 431 496 38,000  Level Indianapolis Center
10:23AM 40.1042 -86.8839 265° West 435 501 38,000  Level Indianapolis Center
10:24AM 40.0933 -87.0394 265° West 433 498 38,000  Level Indianapolis Center
10:25AM 40.0814 -87.1978 264° West 437 503 38,000  Level Indianapolis Center
10:26AM 40.0703 -87.3542 265° West 437 503 38,000  Level Indianapolis Center
10:27AM 40.0481 -87.6428 264° West 440 506 38,000  Level Kansas City Center
10:28AM 40.0450 -87.7014 266° West 440 506 38,000  Level Indianapolis Center
10:29AM 40.0322 -87.8611 264° West 442 509 38,000  Level Indianapolis Center
10:30AM 40.0192 -88.0194 264° West 441 507 38,000  Level Indianapolis Center
10:30AM 40.0111 -88.1078 263° West 441 507 38,000  Level Kansas City Center
10:31AM 40.0058 -88.2019 266° West 436 502 38,000  Level Chicago Center
10:32AM 39.9886 -88.3900 263° West 435 501 38,000  Level Chicago Center
10:32AM 39.9833 -88.4525 264° West 434 499 38,000  Level Kansas City Center
10:34AM 39.9711 -88.6072 264° West 431 496 38,000  Level Kansas City Center
10:35AM 39.9572 -88.7631 263° West 433 498 38,000  Level Kansas City Center
10:36AM 39.9442 -88.9178 264° West 430 495 38,000  Level Kansas City Center
10:37AM 39.9308 -89.0733 264° West 431 496 38,000  Level Kansas City Center
10:38AM 39.9169 -89.2286 263° West 430 495 38,000  Level Kansas City Center
10:39AM 39.9028 -89.3853 263° West 432 497 38,000  Level Kansas City Center
10:39AM 39.8919 -89.5086 264° West 429 494 38,000  Level Chicago Center
10:40AM 39.8769 -89.6644 263° West 432 497 38,000  Level Chicago Center
10:41AM 39.8703 -89.7281 262° West 433 498 38,000  Level Kansas City Center
10:42AM 39.8556 -89.8861 263° West 437 503 38,000  Level Kansas City Center
10:43AM 39.8406 -90.0408 263° West 434 499 38,000  Level Kansas City Center
10:44AM 39.8256 -90.1967 263° West 433 498 38,000  Level Kansas City Center
10:45AM 39.8097 -90.3508 262° West 431 496 38,000  Level Kansas City Center
10:46AM 39.7942 -90.5056 263° West 430 495 38,000  Level Kansas City Center
10:47AM 39.7761 -90.6903 263° West 429 494 38,000  Level Kansas City Center
10:48AM 39.7597 -90.8458 262° West 431 496 38,000  Level Kansas City Center
10:49AM 39.7442 -90.9969 262° West 433 498 38,000  Level Kansas City Center
10:50AM 39.7289 -91.1492 263° West 432 497 38,000  Level Kansas City Center
10:51AM 39.7114 -91.3042 262° West 433 498 38,000  Level Kansas City Center
10:52AM 39.6897 -91.4928 262° West 436 502 38,000  Level Kansas City Center
10:53AM 39.6728 -91.6492 262° West 438 504 38,000  Level Kansas City Center
10:54AM 39.6553 -91.8047 262° West 438 504 38,000  Level Kansas City Center
10:55AM 39.6378 -91.9594 262° West 437 503 38,000  Level Kansas City Center
10:56AM 39.6211 -92.1128 262° West 434 499 38,000  Level Kansas City Center
10:57AM 39.6025 -92.2672 261° West 434 499 38,000  Level Kansas City Center
10:58AM 39.5811 -92.4503 261° West 432 497 38,000  Level Kansas City Center
10:59AM 39.5628 -92.6019 261° West 428 493 38,000 -300 Level Kansas City Center
11:00AM 39.5444 -92.7525 261° West 427 491 37,500 -780 Descending Kansas City Center
11:01AM 39.5256 -92.9044 261° West 427 491 36,400 -1,020 Descending Kansas City Center
11:02AM 39.5061 -93.0583 261° West 432 497 35,400 -1,200 Descending Kansas City Center
11:03AM 39.4842 -93.2436 261° West 436 502 34,000 -1,200 Descending Kansas City Center
11:05AM 39.4642 -93.3925 260° West 428 493 32,900 -1,080 Descending Kansas City Center
11:06AM 39.4461 -93.5472 261° West 433 498 31,800 -2,040 Descending Kansas City Center
11:07AM 39.4278 -93.6892 261° West 404 465 28,700 -3,720 Descending Kansas City Center
11:08AM 39.4081 -93.8339 260° West 377 434 24,200 -4,500 Descending Kansas City Center
11:09AM 39.3897 -93.9642 260° West 385 443 19,400 -4,020 Descending Kansas City Center
11:10AM 39.3708 -94.1119 261° West 374 430 15,900 -2,280 Descending Kansas City Center
11:11AM 39.3517 -94.2356 259° West 368 423 14,700 -1,380 Descending Kansas City Center
11:12AM 39.3292 -94.3808 259° West 370 426 13,100 -840 Descending Kansas City Center
11:13AM 39.3111 -94.5011 259° West 358 412 13,000 -60 Descending Kansas City Center
11:14AM 39.2889 -94.6436 259° West 363 418 13,000 -480 Level Kansas City Center
11:15AM 39.2708 -94.7608 259° West 354 407 12,100 -1,140 Descending Kansas City Center
11:16AM 39.2497 -94.8936 258° West 333 383 10,700 -1,440 Descending Kansas City Center
11:17AM 39.2417 -94.9897 264° West 286 329 9,200 -1,500 Descending Kansas City Center
11:18AM 39.2467 -95.1017 273° West 282 325 7,600 -1,500 Descending Kansas City Center
11:19AM 39.2528 -95.1956 275° West 280 322 6,100 -1,260 Descending Kansas City Center
11:20AM 39.2631 -95.2983 277° West 271 312 5,000 -1,020 Descending Kansas City Center
11:21AM 39.2700 -95.4039 275° West 267 307 4,000 -540 Descending Kansas City Center
11:22AM 39.2756 -95.4956 275° West 268 308 4,000  Level Kansas City Center
11:23AM 39.2828 -95.6022 275° West 266 306 4,000  Level Kansas City Center
11:24AM 39.2464 -95.6711 236° Southwest 253 291 4,000  Level Kansas City Center
11:25AM 39.2003 -95.7317 226° Southwest 213 245 4,000 -420 Level Kansas City Center
11:26AM 39.1569 -95.7347 183° South 185 213 3,200 -900 Descending Kansas City Center
11:27AM 39.1214 -95.6872 134° Southeast 165 190 2,200 -780 Descending Kansas City Center
11:28AM 39.0975 -95.6581 137° Southeast 140 161 1,600 -600 Descending Kansas City Center
11:29AM 39.0772 -95.6317 135° Southeast 122 140 1,000 -600 Descending Kansas City Center